createdAt,value
2023-01-15T00:02:10.640Z,5.20
2023-01-15T00:04:40.411Z,5.10
2023-01-15T00:07:08.872Z,5.20
2023-01-15T00:09:37.188Z,5.20
2023-01-15T00:12:05.996Z,5.10
2023-01-15T00:14:34.340Z,5.20
2023-01-15T00:17:02.628Z,5.20
2023-01-15T00:19:31.041Z,5.20
2023-01-15T00:22:01.173Z,5.30
2023-01-15T00:24:49.264Z,5.30
2023-01-15T00:27:34.697Z,5.30
2023-01-15T00:30:03.280Z,5.40
2023-01-15T00:32:31.724Z,5.40
2023-01-15T00:35:00.989Z,5.40
2023-01-15T00:37:30.772Z,5.50
2023-01-15T00:39:59.175Z,5.50
2023-01-15T00:42:27.421Z,5.50
2023-01-15T00:44:56.290Z,5.50
2023-01-15T00:47:24.599Z,5.60
2023-01-15T00:49:53.427Z,5.60
2023-01-15T00:52:21.771Z,5.60
2023-01-15T00:54:51.649Z,5.70
2023-01-15T00:57:20.029Z,5.70
2023-01-15T00:59:48.395Z,5.70
2023-01-15T01:02:16.870Z,5.70
2023-01-15T01:04:45.187Z,5.70
2023-01-15T01:07:13.869Z,5.70
2023-01-15T01:09:42.217Z,5.70
2023-01-15T01:12:12.005Z,5.70
2023-01-15T01:14:40.403Z,5.70
2023-01-15T01:17:08.749Z,5.70
2023-01-15T01:19:38.476Z,5.70
2023-01-15T01:22:06.836Z,5.60
2023-01-15T01:24:35.207Z,5.60
2023-01-15T01:27:03.556Z,5.70
2023-01-15T01:29:33.298Z,5.70
2023-01-15T01:32:02.244Z,5.60
2023-01-15T01:34:30.547Z,5.60
2023-01-15T01:36:59.945Z,5.60
2023-01-15T01:39:28.314Z,5.70
2023-01-15T01:41:56.805Z,5.70
2023-01-15T01:45:02.892Z,5.70
2023-01-15T01:47:33.360Z,5.70
2023-01-15T01:50:08.667Z,5.70
2023-01-15T01:52:43.388Z,5.70
2023-01-15T01:55:23.490Z,5.70
2023-01-15T01:57:53.973Z,5.70
2023-01-15T02:00:25.267Z,5.80
2023-01-15T02:02:55.245Z,5.80
2023-01-15T02:05:30.508Z,5.90
2023-01-15T02:08:02.317Z,5.90
2023-01-15T02:10:30.846Z,5.90
2023-01-15T02:13:06.191Z,6.00
2023-01-15T02:15:40.075Z,5.90
2023-01-15T02:18:17.602Z,5.90
2023-01-15T02:20:51.769Z,6.00
2023-01-15T02:23:49.753Z,6.00
2023-01-15T02:27:02.601Z,6.00
2023-01-15T02:29:39.547Z,6.00
2023-01-15T02:32:11.985Z,6.10
2023-01-15T02:34:47.795Z,6.10
2023-01-15T02:37:23.869Z,6.10
2023-01-15T02:39:54.238Z,6.10
2023-01-15T02:42:24.632Z,6.10
2023-01-15T02:44:57.295Z,6.20
2023-01-15T02:47:28.424Z,6.10
2023-01-15T02:50:00.935Z,6.20
2023-01-15T02:52:34.271Z,6.20
2023-01-15T02:55:07.298Z,6.20
2023-01-15T02:57:38.498Z,6.20
2023-01-15T03:00:15.151Z,6.20
2023-01-15T03:02:49.369Z,6.20
2023-01-15T03:05:23.722Z,6.10
2023-01-15T03:07:54.328Z,6.10
2023-01-15T03:10:26.433Z,6.20
2023-01-15T03:13:04.368Z,6.20
2023-01-15T03:16:01.836Z,6.30
2023-01-15T03:18:35.599Z,6.30
2023-01-15T03:21:09.773Z,6.30
2023-01-15T03:23:41.048Z,6.30
2023-01-15T03:26:09.302Z,6.30
2023-01-15T03:28:40.134Z,6.30
2023-01-15T03:31:09.995Z,6.30
2023-01-15T03:33:38.472Z,6.30
2023-01-15T03:36:07.824Z,6.40
2023-01-15T03:38:38.558Z,6.40
2023-01-15T03:41:17.488Z,6.30
2023-01-15T03:43:58.284Z,6.40
2023-01-15T03:46:56.499Z,6.50
2023-01-15T03:49:34.682Z,6.50
2023-01-15T03:52:07.124Z,6.50
2023-01-15T03:54:45.153Z,6.60
2023-01-15T03:57:20.337Z,6.60
2023-01-15T03:59:52.842Z,6.60
2023-01-15T04:02:25.021Z,6.70
2023-01-15T04:04:55.384Z,6.70
2023-01-15T04:07:24.578Z,6.70
2023-01-15T04:09:53.119Z,6.70
2023-01-15T04:12:21.551Z,6.70
2023-01-15T04:14:49.789Z,6.70
2023-01-15T04:17:18.257Z,6.70
2023-01-15T04:19:48.173Z,6.80
2023-01-15T04:22:16.579Z,6.80
2023-01-15T04:24:45.031Z,6.80
2023-01-15T04:27:13.356Z,6.90
2023-01-15T04:29:41.736Z,6.90
2023-01-15T04:32:10.070Z,6.90
2023-01-15T04:34:38.480Z,6.90
2023-01-15T04:37:08.409Z,6.90
2023-01-15T04:39:36.885Z,6.90
2023-01-15T04:42:22.720Z,6.90
2023-01-15T04:44:51.149Z,6.90
2023-01-15T04:47:19.464Z,6.80
2023-01-15T04:49:47.739Z,6.80
2023-01-15T04:52:17.710Z,6.80
2023-01-15T04:54:46.136Z,6.80
2023-01-15T04:57:14.468Z,6.90
2023-01-15T04:59:42.903Z,6.80
2023-01-15T05:02:11.502Z,6.80
2023-01-15T05:04:40.025Z,6.80
2023-01-15T05:07:08.584Z,6.80
2023-01-15T05:09:38.573Z,6.90
2023-01-15T05:12:07.441Z,6.90
2023-01-15T05:14:35.674Z,6.90
2023-01-15T05:17:04.112Z,6.90
2023-01-15T05:19:32.550Z,6.90
2023-01-15T05:22:00.869Z,6.90
2023-01-15T05:24:29.187Z,6.90
2023-01-15T05:26:59.358Z,6.90
2023-01-15T05:29:27.684Z,6.90
2023-01-15T05:31:56.171Z,6.90
2023-01-15T05:34:24.784Z,7.00
2023-01-15T05:36:53.179Z,7.00
2023-01-15T05:39:21.518Z,6.90
2023-01-15T05:41:53.242Z,7.00
2023-01-15T05:44:25.736Z,7.00
2023-01-15T05:46:56.544Z,7.00
2023-01-15T05:49:26.549Z,7.00
2023-01-15T05:51:55.908Z,7.00
2023-01-15T05:54:25.812Z,7.00
2023-01-15T05:56:54.502Z,7.00
2023-01-15T05:59:26.036Z,7.00
2023-01-15T06:01:55.037Z,7.10
2023-01-15T06:04:25.339Z,7.10
2023-01-15T06:06:55.181Z,7.10
2023-01-15T06:09:24.144Z,7.10
2023-01-15T06:11:53.711Z,7.10
2023-01-15T06:14:23.504Z,7.10
2023-01-15T06:16:51.889Z,7.10
2023-01-15T06:19:20.485Z,7.10
2023-01-15T06:21:49.175Z,7.10
2023-01-15T06:24:18.072Z,7.10
2023-01-15T06:26:46.766Z,7.10
2023-01-15T06:29:18.997Z,7.10
2023-01-15T06:31:49.573Z,7.20
2023-01-15T06:34:18.325Z,7.10
2023-01-15T06:36:46.656Z,7.20
2023-01-15T06:39:14.945Z,7.10
2023-01-15T06:42:00.936Z,7.20
2023-01-15T06:44:48.716Z,7.30
2023-01-15T06:47:24.833Z,7.30
2023-01-15T06:49:55.610Z,7.20
2023-01-15T06:52:24.420Z,7.30
2023-01-15T06:54:53.408Z,7.30
2023-01-15T06:57:21.979Z,7.30
2023-01-15T06:59:51.132Z,7.40
2023-01-15T07:02:21.897Z,7.40
2023-01-15T07:04:53.301Z,7.40
2023-01-15T07:07:22.824Z,7.40
2023-01-15T07:09:51.968Z,7.40
2023-01-15T07:12:23.592Z,7.40
2023-01-15T07:14:51.865Z,7.50
2023-01-15T07:17:21.713Z,7.50
2023-01-15T07:19:50.058Z,7.50
2023-01-15T07:22:18.451Z,7.60
2023-01-15T07:24:46.782Z,7.60
2023-01-15T07:27:15.079Z,7.60
2023-01-15T07:29:43.433Z,7.50
2023-01-15T07:32:11.945Z,7.50
2023-01-15T07:34:42.282Z,7.60
2023-01-15T07:37:10.682Z,7.60
2023-01-15T07:39:38.925Z,7.60
2023-01-15T07:42:24.611Z,7.60
2023-01-15T07:45:10.315Z,7.60
2023-01-15T07:47:57.647Z,7.70
2023-01-15T07:50:27.459Z,7.70
2023-01-15T07:52:55.897Z,7.70
2023-01-15T07:55:24.823Z,7.80
2023-01-15T07:57:53.960Z,7.80
2023-01-15T08:00:24.681Z,7.80
2023-01-15T08:02:53.075Z,7.80
2023-01-15T08:05:21.740Z,7.80
2023-01-15T08:07:51.705Z,7.80
2023-01-15T08:10:20.997Z,7.80
2023-01-15T08:13:09.181Z,7.80
2023-01-15T08:15:43.964Z,7.70
2023-01-15T08:18:12.471Z,7.70
2023-01-15T08:20:40.776Z,7.60
2023-01-15T08:23:10.814Z,7.60
2023-01-15T08:25:39.184Z,7.50
2023-01-15T08:28:07.715Z,7.50
2023-01-15T08:30:36.325Z,7.20
2023-01-15T08:33:04.693Z,6.90
2023-01-15T08:35:34.506Z,6.50
2023-01-15T08:38:10.210Z,6.20
2023-01-15T08:40:58.741Z,5.90
2023-01-15T08:43:27.375Z,5.60
2023-01-15T08:45:59.288Z,5.30
2023-01-15T08:48:29.289Z,5.20
2023-01-15T08:50:57.941Z,5.00
2023-01-15T08:53:29.713Z,4.80
2023-01-15T08:56:01.332Z,4.60
2023-01-15T08:58:30.021Z,4.50
2023-01-15T09:00:58.716Z,4.40
2023-01-15T09:03:27.139Z,4.30
2023-01-15T09:05:55.583Z,4.20
2023-01-15T09:08:31.237Z,4.20
2023-01-15T09:10:59.860Z,4.20
2023-01-15T09:13:29.545Z,4.20
2023-01-15T09:16:01.290Z,4.20
2023-01-15T09:18:36.053Z,4.20
2023-01-15T09:21:04.940Z,4.20
2023-01-15T09:23:34.778Z,4.10
2023-01-15T09:26:05.268Z,4.10
2023-01-15T09:28:34.888Z,4.10
2023-01-15T09:31:03.655Z,4.20
2023-01-15T09:33:32.063Z,4.20
2023-01-15T09:36:00.324Z,4.20
2023-01-15T09:38:28.595Z,4.30
2023-01-15T09:41:02.929Z,4.30
2023-01-15T09:43:50.014Z,4.30
2023-01-15T09:46:22.684Z,4.30
2023-01-15T09:48:59.566Z,4.30
2023-01-15T09:51:35.592Z,4.30
2023-01-15T09:54:18.988Z,4.30
2023-01-15T09:56:49.437Z,4.20
2023-01-15T09:59:23.774Z,4.20
2023-01-15T10:01:54.053Z,4.20
2023-01-15T10:04:35.875Z,4.20
2023-01-15T10:07:26.056Z,4.20
2023-01-15T10:10:02.288Z,4.20
2023-01-15T10:12:36.765Z,4.20
2023-01-15T10:15:38.118Z,4.20
2023-01-15T10:18:09.931Z,4.10
2023-01-15T10:20:50.774Z,4.00
2023-01-15T10:23:40.345Z,4.00
2023-01-15T10:26:31.888Z,4.00
2023-01-15T10:29:04.645Z,4.00
2023-01-15T10:31:46.660Z,4.00
2023-01-15T10:34:32.188Z,4.00
2023-01-15T10:37:09.970Z,4.00
2023-01-15T10:39:49.077Z,4.00
2023-01-15T10:42:31.845Z,4.10
2023-01-15T10:45:05.135Z,4.00
2023-01-15T10:47:36.575Z,4.10
2023-01-15T10:50:14.449Z,4.10
2023-01-15T10:52:50.938Z,4.00
2023-01-15T10:55:25.459Z,4.00
2023-01-15T10:58:10.390Z,4.00
2023-01-15T11:00:41.397Z,4.10
2023-01-15T11:03:18.250Z,4.10
2023-01-15T11:05:47.295Z,4.10
2023-01-15T11:11:23.528Z,4.10
2023-01-15T11:14:13.517Z,4.10
2023-01-15T11:17:02.494Z,4.10
2023-01-15T11:19:38.172Z,4.20
2023-01-15T11:22:14.819Z,4.20
2023-01-15T11:24:52.144Z,4.20
2023-01-15T11:27:25.784Z,4.30
2023-01-15T11:29:56.502Z,4.30
2023-01-15T11:32:32.904Z,4.30
2023-01-15T11:35:22.794Z,4.30
2023-01-15T11:38:03.983Z,4.30
2023-01-15T11:40:38.245Z,4.30
2023-01-15T11:43:40.346Z,4.30
2023-01-15T11:46:46.193Z,4.30
2023-01-15T11:49:38.240Z,4.30
2023-01-15T11:52:14.213Z,4.30
2023-01-15T11:54:45.949Z,4.30
2023-01-15T11:57:29.367Z,4.30
2023-01-15T11:59:59.110Z,4.30
2023-01-15T12:02:38.320Z,4.40
2023-01-15T12:05:16.644Z,4.50
2023-01-15T12:07:55.490Z,4.50
2023-01-15T12:10:54.460Z,4.40
2023-01-15T12:13:31.096Z,4.30
2023-01-15T12:16:09.846Z,4.30
2023-01-15T12:18:59.149Z,4.30
2023-01-15T12:22:00.860Z,4.30
2023-01-15T12:24:55.245Z,4.30
2023-01-15T12:27:56.347Z,4.30
2023-01-15T12:30:39.711Z,4.20
2023-01-15T12:33:25.957Z,4.20
2023-01-15T12:35:59.818Z,4.20
2023-01-15T12:38:42.920Z,4.10
2023-01-15T12:41:16.797Z,4.10
2023-01-15T12:44:06.288Z,4.10
2023-01-15T12:46:43.359Z,4.10
2023-01-15T12:49:19.244Z,4.10
2023-01-15T12:51:54.128Z,4.20
2023-01-15T12:54:30.675Z,4.20
2023-01-15T12:57:06.737Z,4.20
2023-01-15T12:59:42.671Z,4.20
2023-01-15T13:02:33.552Z,4.20
2023-01-15T13:05:13.172Z,4.20
2023-01-15T13:07:45.186Z,4.20
2023-01-15T13:10:19.048Z,4.20
2023-01-15T13:12:47.491Z,4.10
2023-01-15T13:15:19.096Z,4.10
2023-01-15T13:17:59.287Z,4.10
2023-01-15T13:20:40.941Z,4.10
2023-01-15T13:23:28.318Z,4.00
2023-01-15T13:26:20.014Z,4.00
2023-01-15T13:29:05.424Z,3.90
2023-01-15T13:31:49.436Z,3.90
2023-01-15T13:34:30.871Z,3.80
2023-01-15T13:37:05.081Z,3.80
2023-01-15T13:39:43.177Z,3.80
2023-01-15T13:42:34.452Z,3.80
2023-01-15T13:45:26.792Z,3.80
2023-01-15T13:47:59.278Z,3.80
2023-01-15T13:50:32.016Z,3.80
2023-01-15T13:53:08.094Z,3.80
2023-01-15T13:55:44.640Z,3.70
2023-01-15T13:58:24.268Z,3.70
2023-01-15T14:01:04.435Z,3.60
2023-01-15T14:03:35.748Z,3.60
2023-01-15T14:06:05.797Z,3.60
2023-01-15T14:08:42.635Z,3.60
2023-01-15T14:11:36.137Z,3.70
2023-01-15T14:14:35.524Z,3.60
2023-01-15T14:17:19.492Z,3.70
2023-01-15T14:20:11.614Z,3.60
2023-01-15T14:22:56.270Z,3.60
2023-01-15T14:25:46.216Z,3.70
2023-01-15T14:28:35.693Z,3.70
2023-01-15T14:31:24.321Z,3.60
2023-01-15T14:34:07.283Z,3.60
2023-01-15T14:36:45.160Z,3.50
2023-01-15T14:39:29.960Z,3.50
2023-01-15T14:42:21.077Z,3.50
2023-01-15T14:45:07.086Z,3.50
2023-01-15T14:47:47.447Z,3.40
2023-01-15T14:50:31.517Z,3.40
2023-01-15T14:53:20.307Z,3.50
2023-01-15T14:55:52.919Z,3.50
2023-01-15T14:58:38.185Z,3.40
2023-01-15T15:01:17.063Z,3.40
2023-01-15T15:03:52.972Z,3.40
2023-01-15T15:06:24.536Z,3.40
2023-01-15T15:08:54.648Z,3.40
2023-01-15T15:11:54.172Z,3.50
2023-01-15T15:14:27.453Z,3.50
2023-01-15T15:17:01.696Z,3.40
2023-01-15T15:19:36.926Z,3.30
2023-01-15T15:22:08.329Z,3.20
2023-01-15T15:24:39.293Z,3.20
2023-01-15T15:27:16.348Z,3.20
2023-01-15T15:29:44.843Z,3.10
2023-01-15T15:32:16.810Z,3.20
2023-01-15T15:34:51.246Z,3.20
2023-01-15T15:37:21.774Z,3.30
2023-01-15T15:39:55.038Z,3.20
2023-01-15T15:42:44.750Z,3.10
2023-01-15T15:45:36.742Z,3.00
2023-01-15T15:48:32.819Z,2.90
2023-01-15T15:51:03.118Z,2.80
2023-01-15T15:53:32.808Z,2.70
2023-01-15T15:56:08.525Z,2.80
2023-01-15T15:58:40.144Z,2.80
2023-01-15T16:01:12.362Z,2.80
2023-01-15T16:03:48.111Z,2.70
2023-01-15T16:06:23.026Z,2.60
2023-01-15T16:08:55.964Z,2.60
2023-01-15T16:11:35.236Z,2.60
2023-01-15T16:14:09.413Z,2.50
2023-01-15T16:16:38.535Z,2.40
2023-01-15T16:19:10.544Z,2.40
2023-01-15T16:21:43.098Z,2.40
2023-01-15T16:24:24.204Z,2.50
2023-01-15T16:27:05.685Z,2.60
2023-01-15T16:29:36.169Z,2.60
2023-01-15T16:32:12.301Z,2.60
2023-01-15T16:34:44.590Z,2.60
2023-01-15T16:37:27.458Z,2.60
2023-01-15T16:39:56.285Z,2.40
2023-01-15T16:42:27.958Z,2.40
2023-01-15T16:45:05.042Z,2.30
2023-01-15T16:47:36.325Z,2.30
2023-01-15T16:50:31.564Z,2.20
2023-01-15T16:53:02.524Z,2.10
2023-01-15T16:55:43.171Z,2.00
2023-01-15T16:58:23.747Z,2.20
2023-01-15T17:00:55.874Z,2.40
2023-01-15T17:03:34.336Z,2.40
2023-01-15T17:06:12.747Z,2.40
2023-01-15T17:08:52.163Z,2.50
2023-01-15T17:11:23.262Z,2.50
2023-01-15T17:14:02.402Z,2.50
2023-01-15T17:16:30.901Z,2.50
2023-01-15T17:19:05.520Z,2.40
2023-01-15T17:21:48.095Z,2.50
2023-01-15T17:24:24.317Z,2.60
2023-01-15T17:26:53.025Z,2.50
2023-01-15T17:29:21.431Z,2.30
2023-01-15T17:31:49.923Z,2.20
2023-01-15T17:34:25.409Z,2.20
2023-01-15T17:36:53.829Z,2.20
2023-01-15T17:39:26.394Z,2.10
2023-01-15T17:41:54.679Z,2.10
2023-01-15T17:44:27.046Z,2.00
2023-01-15T17:46:59.449Z,2.00
2023-01-15T17:49:27.895Z,2.10
2023-01-15T17:51:56.365Z,2.10
2023-01-15T17:54:39.988Z,2.20
2023-01-15T17:57:26.876Z,2.20
2023-01-15T18:00:15.859Z,2.40
2023-01-15T18:03:02.284Z,2.40
2023-01-15T18:05:35.440Z,2.40
2023-01-15T18:08:06.316Z,2.40
2023-01-15T18:10:37.693Z,2.40
2023-01-15T18:13:08.783Z,2.40
2023-01-15T18:15:40.663Z,2.40
2023-01-15T18:18:22.417Z,2.30
2023-01-15T18:20:51.583Z,2.30
2023-01-15T18:23:20.298Z,2.10
2023-01-15T18:25:52.330Z,2.00
2023-01-15T18:28:21.089Z,1.90
2023-01-15T18:30:50.053Z,1.80
2023-01-15T18:33:18.450Z,1.80
2023-01-15T18:35:50.439Z,1.70
2023-01-15T18:38:18.940Z,1.70
2023-01-15T18:40:47.553Z,1.70
2023-01-15T18:43:39.528Z,1.50
2023-01-15T18:46:28.777Z,1.50
2023-01-15T18:49:02.264Z,1.40
2023-01-15T18:51:30.788Z,1.20
2023-01-15T18:54:05.196Z,1.30
2023-01-15T18:56:43.476Z,1.30
2023-01-15T18:59:15.592Z,1.30
2023-01-15T19:01:44.182Z,1.40
2023-01-15T19:04:12.707Z,1.40
2023-01-15T19:06:42.247Z,1.50
2023-01-15T19:09:13.902Z,1.40
2023-01-15T19:11:45.308Z,1.30
2023-01-15T19:14:33.473Z,1.30
2023-01-15T19:17:19.165Z,1.20
2023-01-15T19:19:48.891Z,1.10
2023-01-15T19:22:35.247Z,1.30
2023-01-15T19:25:03.684Z,1.40
2023-01-15T19:27:32.128Z,1.40
2023-01-15T19:30:08.144Z,1.30
2023-01-15T19:32:36.997Z,1.30
2023-01-15T19:35:05.919Z,1.40
2023-01-15T19:38:05.771Z,1.30
2023-01-15T19:40:37.827Z,1.30
2023-01-15T19:43:26.850Z,1.20
2023-01-15T19:46:15.598Z,1.20
2023-01-15T19:49:07.600Z,1.10
2023-01-15T19:51:56.258Z,1.10
2023-01-15T19:54:41.269Z,1.00
2023-01-15T19:57:11.367Z,1.10
2023-01-15T19:59:42.147Z,1.10
2023-01-15T20:02:13.497Z,1.10
2023-01-15T20:04:44.964Z,1.00
2023-01-15T20:07:14.754Z,0.90
2023-01-15T20:09:43.309Z,0.80
2023-01-15T20:12:32.345Z,0.70
2023-01-15T20:15:00.969Z,0.60
2023-01-15T20:17:31.236Z,0.50
2023-01-15T20:19:59.805Z,0.40
2023-01-15T20:22:30.138Z,0.40
2023-01-15T20:24:58.442Z,0.40
2023-01-15T20:27:29.446Z,0.50
2023-01-15T20:29:57.825Z,0.50
2023-01-15T20:32:26.539Z,0.60
2023-01-15T20:34:56.611Z,0.70
2023-01-15T20:37:24.960Z,0.70
2023-01-15T20:39:53.707Z,0.80
2023-01-15T20:42:42.183Z,0.80
2023-01-15T20:45:16.070Z,0.80
2023-01-15T20:48:05.429Z,0.80
2023-01-15T20:50:37.513Z,0.80
2023-01-15T20:53:07.934Z,0.90
2023-01-15T20:55:53.353Z,1.00
2023-01-15T20:58:26.150Z,1.10
2023-01-15T21:01:01.819Z,1.20
2023-01-15T21:03:33.721Z,1.20
2023-01-15T21:06:07.881Z,1.30
2023-01-15T21:08:46.328Z,1.20
2023-01-15T21:11:14.907Z,1.30
2023-01-15T21:13:54.835Z,1.40
2023-01-15T21:16:26.133Z,1.40
2023-01-15T21:18:54.780Z,1.50
2023-01-15T21:21:24.786Z,1.50
2023-01-15T21:23:53.588Z,1.50
2023-01-15T21:26:27.065Z,1.50
2023-01-15T21:29:01.356Z,1.40
2023-01-15T21:31:32.816Z,1.50
2023-01-15T21:34:02.463Z,1.40
2023-01-15T21:36:35.280Z,1.50
2023-01-15T21:39:08.148Z,1.50
2023-01-15T21:41:53.943Z,1.50
2023-01-15T21:44:46.445Z,1.50
2023-01-15T21:47:18.828Z,1.50
2023-01-15T21:49:57.761Z,1.60
2023-01-15T21:52:31.125Z,1.60
2023-01-15T21:55:00.462Z,1.60
2023-01-15T21:57:30.557Z,1.60
2023-01-15T21:59:58.823Z,1.40
2023-01-15T22:02:29.826Z,1.40
2023-01-15T22:05:02.315Z,1.50
2023-01-15T22:07:32.104Z,1.40
2023-01-15T22:10:02.256Z,1.40
2023-01-15T22:12:30.606Z,1.30
2023-01-15T22:14:59.082Z,1.30
2023-01-15T22:17:27.513Z,1.40
2023-01-15T22:20:00.673Z,1.40
2023-01-15T22:22:33.798Z,1.40
2023-01-15T22:25:05.365Z,1.30
2023-01-15T22:27:35.672Z,1.30
2023-01-15T22:30:06.932Z,1.20
2023-01-15T22:32:35.221Z,1.10
2023-01-15T22:35:08.487Z,1.10
2023-01-15T22:37:36.980Z,0.90
2023-01-15T22:40:08.261Z,0.90
2023-01-15T22:42:36.647Z,0.80
2023-01-15T22:45:05.934Z,0.80
2023-01-15T22:47:34.323Z,0.90
2023-01-15T22:50:06.313Z,0.80
2023-01-15T22:52:35.606Z,0.80
2023-01-15T22:55:03.870Z,0.70
2023-01-15T22:57:33.588Z,0.60
2023-01-15T23:00:02.306Z,0.50
2023-01-15T23:02:50.985Z,0.40
2023-01-15T23:05:27.119Z,0.40
2023-01-15T23:07:58.721Z,0.50
2023-01-15T23:10:27.366Z,0.50
2023-01-15T23:12:57.092Z,0.50
2023-01-15T23:15:25.473Z,0.40
2023-01-15T23:17:53.803Z,0.40
2023-01-15T23:20:22.311Z,0.40
2023-01-15T23:22:50.593Z,0.40
2023-01-15T23:25:19.140Z,0.60
2023-01-15T23:27:47.640Z,0.60
2023-01-15T23:30:18.280Z,0.80
2023-01-15T23:32:46.782Z,0.80
2023-01-15T23:35:15.169Z,0.80
2023-01-15T23:37:43.552Z,0.90
2023-01-15T23:40:13.062Z,1.00
2023-01-15T23:42:58.780Z,1.00
2023-01-15T23:45:59.983Z,1.00
2023-01-15T23:48:38.414Z,1.00
2023-01-15T23:51:09.852Z,1.10
2023-01-15T23:53:41.289Z,1.10
2023-01-15T23:56:10.432Z,1.20
2023-01-15T23:58:38.797Z,1.30
